PUA1502 SUMU-SABE
Flight info
| Callsign | PUA1502 |
|---|---|
| Flight time | 0h 30m |
| Altitude | 18000 |
| Route | DAGUS A306 UGIMI UGIMI8R |
| Aircraft | A320/M-SDE3FGHIRWY/LB1 |
Departure
| Time | 2026-05-08 22:17 |
|---|---|
| Airport | Carrasco General Cesáreo L. Berisso International Airport (SUMU) |
Arrival
| Time | 2026-05-08 22:48 |
|---|---|
| Airport | Aeroparque Jorge Newbery (SABE) |
| Time | Latitude | Longitude | Altitude | Speed | Heading |
|---|---|---|---|---|---|
| 2026-05-08 21:55 | -34.83706 | -56.01922 | 86 ft | 0 kts | 142° |
| 2026-05-08 22:09 | -34.83703 | -56.01924 | 79 ft | 3 kts | 142° |
| 2026-05-08 22:09 | -34.83683 | -56.01944 | 88 ft | 4 kts | 139° |
| 2026-05-08 22:09 | -34.83663 | -56.01967 | 85 ft | 4 kts | 132° |
| 2026-05-08 22:09 | -34.83647 | -56.01992 | 87 ft | 4 kts | 108° |
| 2026-05-08 22:10 | -34.83646 | -56.02014 | 87 ft | 0 kts | 53° |
| 2026-05-08 22:12 | -34.83638 | -56.02000 | 87 ft | 5 kts | 53° |
| 2026-05-08 22:13 | -34.83590 | -56.01921 | 85 ft | 13 kts | 53° |
| 2026-05-08 22:13 | -34.83539 | -56.01838 | 84 ft | 11 kts | 53° |
| 2026-05-08 22:13 | -34.83495 | -56.01770 | 84 ft | 9 kts | 39° |
| 2026-05-08 22:13 | -34.83416 | -56.01792 | 84 ft | 15 kts | 327° |
| 2026-05-08 22:14 | -34.83322 | -56.01856 | 85 ft | 16 kts | 358° |
| 2026-05-08 22:14 | -34.83241 | -56.01765 | 85 ft | 16 kts | 53° |
| 2026-05-08 22:14 | -34.83175 | -56.01653 | 86 ft | 16 kts | 53° |
| 2026-05-08 22:14 | -34.83110 | -56.01548 | 85 ft | 15 kts | 53° |
| 2026-05-08 22:15 | -34.83051 | -56.01451 | 83 ft | 13 kts | 53° |
| 2026-05-08 22:15 | -34.82999 | -56.01366 | 84 ft | 12 kts | 53° |
| 2026-05-08 22:15 | -34.82936 | -56.01264 | 83 ft | 19 kts | 53° |
| 2026-05-08 22:15 | -34.82841 | -56.01131 | 86 ft | 21 kts | 43° |
| 2026-05-08 22:16 | -34.82737 | -56.01161 | 84 ft | 14 kts | 330° |
| 2026-05-08 22:16 | -34.82727 | -56.01251 | 84 ft | 16 kts | 233° |
| 2026-05-08 22:16 | -34.82898 | -56.01540 | 83 ft | 77 kts | 233° |
| 2026-05-08 22:16 | -34.83344 | -56.02269 | 85 ft | 135 kts | 233° |
| 2026-05-08 22:17 | -34.83973 | -56.03316 | 358 ft | 158 kts | 237° |
| 2026-05-08 22:17 | -34.84615 | -56.04392 | 1149 ft | 156 kts | 238° |
| 2026-05-08 22:17 | -34.85283 | -56.05494 | 1712 ft | 172 kts | 238° |
| 2026-05-08 22:17 | -34.86037 | -56.06743 | 2073 ft | 192 kts | 238° |
| 2026-05-08 22:18 | -34.86846 | -56.08104 | 2507 ft | 212 kts | 238° |
| 2026-05-08 22:18 | -34.87727 | -56.09602 | 2991 ft | 221 kts | 238° |
| 2026-05-08 22:18 | -34.88627 | -56.11142 | 3504 ft | 224 kts | 238° |
| 2026-05-08 22:18 | -34.89534 | -56.12701 | 4027 ft | 227 kts | 238° |
| 2026-05-08 22:19 | -34.90446 | -56.14280 | 4544 ft | 230 kts | 238° |
| 2026-05-08 22:19 | -34.91349 | -56.15905 | 5054 ft | 231 kts | 243° |
| 2026-05-08 22:19 | -34.91836 | -56.17755 | 5576 ft | 232 kts | 263° |
| 2026-05-08 22:19 | -34.92033 | -56.19716 | 6111 ft | 234 kts | 263° |
| 2026-05-08 22:20 | -34.92221 | -56.21692 | 6676 ft | 236 kts | 264° |
| 2026-05-08 22:20 | -34.92407 | -56.23693 | 7252 ft | 240 kts | 264° |
| 2026-05-08 22:20 | -34.92593 | -56.25726 | 7840 ft | 243 kts | 264° |
| 2026-05-08 22:20 | -34.92778 | -56.27759 | 8427 ft | 245 kts | 264° |
| 2026-05-08 22:21 | -34.92967 | -56.29842 | 9034 ft | 249 kts | 264° |
| 2026-05-08 22:21 | -34.93161 | -56.31949 | 9650 ft | 252 kts | 264° |
| 2026-05-08 22:21 | -34.93362 | -56.34110 | 10211 ft | 263 kts | 264° |
| 2026-05-08 22:21 | -34.93574 | -56.36363 | 10837 ft | 272 kts | 264° |
| 2026-05-08 22:22 | -34.93794 | -56.38694 | 11496 ft | 281 kts | 264° |
| 2026-05-08 22:22 | -34.94021 | -56.41091 | 12169 ft | 289 kts | 264° |
| 2026-05-08 22:22 | -34.94253 | -56.43561 | 12856 ft | 297 kts | 264° |
| 2026-05-08 22:22 | -34.94486 | -56.46094 | 13552 ft | 304 kts | 264° |
| 2026-05-08 22:23 | -34.94718 | -56.48678 | 14184 ft | 309 kts | 265° |
| 2026-05-08 22:23 | -34.94955 | -56.51303 | 14824 ft | 314 kts | 265° |
| 2026-05-08 22:23 | -34.95196 | -56.53964 | 15477 ft | 318 kts | 265° |
| 2026-05-08 22:23 | -34.95442 | -56.56661 | 16139 ft | 322 kts | 265° |
| 2026-05-08 22:24 | -34.95690 | -56.59382 | 16820 ft | 324 kts | 265° |
| 2026-05-08 22:24 | -34.95938 | -56.62122 | 17485 ft | 328 kts | 265° |
| 2026-05-08 22:24 | -34.96192 | -56.64951 | 17706 ft | 344 kts | 265° |
| 2026-05-08 22:24 | -34.96456 | -56.67918 | 17745 ft | 357 kts | 265° |
| 2026-05-08 22:25 | -34.96725 | -56.70940 | 17755 ft | 360 kts | 265° |
| 2026-05-08 22:25 | -34.96997 | -56.73987 | 17755 ft | 361 kts | 265° |
| 2026-05-08 22:25 | -34.97266 | -56.76989 | 17754 ft | 362 kts | 265° |
| 2026-05-08 22:25 | -34.97537 | -56.80037 | 17752 ft | 362 kts | 265° |
| 2026-05-08 22:26 | -34.97807 | -56.83079 | 17757 ft | 362 kts | 265° |
| 2026-05-08 22:26 | -34.98076 | -56.86135 | 17757 ft | 362 kts | 265° |
| 2026-05-08 22:26 | -34.98279 | -56.89184 | 17756 ft | 361 kts | 271° |
| 2026-05-08 22:26 | -34.98272 | -56.92245 | 17754 ft | 361 kts | 271° |
| 2026-05-08 22:27 | -34.98261 | -56.95298 | 17753 ft | 361 kts | 271° |
| 2026-05-08 22:27 | -34.98252 | -56.98362 | 17756 ft | 361 kts | 271° |
| 2026-05-08 22:27 | -34.98242 | -57.01416 | 17758 ft | 361 kts | 271° |
| 2026-05-08 22:27 | -34.98230 | -57.04476 | 17755 ft | 361 kts | 271° |
| 2026-05-08 22:28 | -34.98216 | -57.07530 | 17754 ft | 361 kts | 271° |
| 2026-05-08 22:28 | -34.98202 | -57.10592 | 17760 ft | 361 kts | 272° |
| 2026-05-08 22:28 | -34.98187 | -57.13656 | 17761 ft | 361 kts | 272° |
| 2026-05-08 22:28 | -34.98172 | -57.16714 | 17756 ft | 361 kts | 272° |
| 2026-05-08 22:29 | -34.98157 | -57.19769 | 17758 ft | 356 kts | 272° |
| 2026-05-08 22:29 | -34.98140 | -57.22720 | 17759 ft | 342 kts | 272° |
| 2026-05-08 22:29 | -34.98123 | -57.25604 | 17764 ft | 339 kts | 272° |
| 2026-05-08 22:29 | -34.98107 | -57.28477 | 17760 ft | 338 kts | 272° |
| 2026-05-08 22:30 | -34.98089 | -57.31348 | 17765 ft | 338 kts | 272° |
| 2026-05-08 22:30 | -34.98069 | -57.34209 | 17764 ft | 338 kts | 272° |
| 2026-05-08 22:30 | -34.98049 | -57.37045 | 17471 ft | 337 kts | 272° |
| 2026-05-08 22:30 | -34.98028 | -57.39940 | 17194 ft | 337 kts | 272° |
| 2026-05-08 22:31 | -34.98009 | -57.42748 | 16925 ft | 336 kts | 272° |
| 2026-05-08 22:31 | -34.97988 | -57.45593 | 16672 ft | 335 kts | 272° |
| 2026-05-08 22:31 | -34.97966 | -57.48427 | 16301 ft | 332 kts | 272° |
| 2026-05-08 22:31 | -34.97944 | -57.51218 | 15942 ft | 327 kts | 272° |
| 2026-05-08 22:32 | -34.97924 | -57.53972 | 15588 ft | 323 kts | 273° |
| 2026-05-08 22:32 | -34.97904 | -57.56688 | 15236 ft | 319 kts | 273° |
| 2026-05-08 22:32 | -34.97882 | -57.59381 | 14890 ft | 316 kts | 273° |
| 2026-05-08 22:32 | -34.97862 | -57.62051 | 14546 ft | 313 kts | 273° |
| 2026-05-08 22:33 | -34.97840 | -57.64698 | 14206 ft | 311 kts | 273° |
| 2026-05-08 22:33 | -34.97816 | -57.67320 | 13871 ft | 309 kts | 274° |
| 2026-05-08 22:33 | -34.97791 | -57.69933 | 13536 ft | 307 kts | 274° |
| 2026-05-08 22:33 | -34.97768 | -57.72532 | 13158 ft | 305 kts | 274° |
| 2026-05-08 22:34 | -34.97742 | -57.75112 | 12788 ft | 304 kts | 274° |
| 2026-05-08 22:34 | -34.97714 | -57.77679 | 12420 ft | 302 kts | 274° |
| 2026-05-08 22:34 | -34.97685 | -57.80229 | 12058 ft | 300 kts | 274° |
| 2026-05-08 22:34 | -34.97659 | -57.82766 | 11696 ft | 298 kts | 274° |
| 2026-05-08 22:35 | -34.97632 | -57.85245 | 11347 ft | 295 kts | 275° |
| 2026-05-08 22:35 | -34.97327 | -57.87689 | 10997 ft | 290 kts | 288° |
| 2026-05-08 22:35 | -34.96541 | -57.89926 | 10647 ft | 286 kts | 302° |
| 2026-05-08 22:35 | -34.95345 | -57.91833 | 10278 ft | 283 kts | 315° |
| 2026-05-08 22:36 | -34.93838 | -57.93363 | 9915 ft | 282 kts | 322° |
| 2026-05-08 22:36 | -34.92291 | -57.94814 | 9512 ft | 276 kts | 321° |
| 2026-05-08 22:36 | -34.90806 | -57.96219 | 9095 ft | 265 kts | 321° |
| 2026-05-08 22:36 | -34.89380 | -57.97572 | 8669 ft | 255 kts | 321° |
| 2026-05-08 22:37 | -34.88006 | -57.98874 | 8255 ft | 246 kts | 320° |
| 2026-05-08 22:37 | -34.86664 | -58.00144 | 7853 ft | 242 kts | 320° |
| 2026-05-08 22:37 | -34.85351 | -58.01382 | 7423 ft | 235 kts | 319° |
| 2026-05-08 22:37 | -34.84071 | -58.02590 | 6972 ft | 231 kts | 319° |
| 2026-05-08 22:38 | -34.82807 | -58.03783 | 6535 ft | 229 kts | 318° |
| 2026-05-08 22:38 | -34.81551 | -58.04977 | 6100 ft | 228 kts | 315° |
| 2026-05-08 22:38 | -34.80666 | -58.06494 | 5785 ft | 218 kts | 286° |
| 2026-05-08 22:38 | -34.80275 | -58.08277 | 5763 ft | 219 kts | 280° |
| 2026-05-08 22:39 | -34.79955 | -58.10093 | 5762 ft | 220 kts | 279° |
| 2026-05-08 22:39 | -34.79642 | -58.11907 | 5766 ft | 219 kts | 279° |
| 2026-05-08 22:39 | -34.79403 | -58.13302 | 5770 ft | 220 kts | 279° |
| 2026-05-08 22:39 | -34.79098 | -58.15075 | 5766 ft | 220 kts | 279° |
| 2026-05-08 22:40 | -34.78783 | -58.16900 | 5641 ft | 220 kts | 279° |
| 2026-05-08 22:40 | -34.78464 | -58.18715 | 5336 ft | 219 kts | 279° |
| 2026-05-08 22:40 | -34.78138 | -58.20504 | 4950 ft | 216 kts | 279° |
| 2026-05-08 22:40 | -34.77801 | -58.22272 | 4560 ft | 214 kts | 279° |
| 2026-05-08 22:41 | -34.77455 | -58.24018 | 4170 ft | 211 kts | 280° |
| 2026-05-08 22:41 | -34.76850 | -58.25643 | 3772 ft | 216 kts | 304° |
| 2026-05-08 22:41 | -34.75629 | -58.26724 | 3434 ft | 226 kts | 334° |
| 2026-05-08 22:41 | -34.74051 | -58.26859 | 3178 ft | 237 kts | 8° |
| 2026-05-08 22:42 | -34.72517 | -58.26237 | 2925 ft | 226 kts | 12° |
| 2026-05-08 22:42 | -34.71056 | -58.25666 | 2657 ft | 215 kts | 10° |
| 2026-05-08 22:42 | -34.69662 | -58.25149 | 2515 ft | 206 kts | 9° |
| 2026-05-08 22:42 | -34.68305 | -58.24655 | 2498 ft | 202 kts | 9° |
| 2026-05-08 22:43 | -34.66976 | -58.24307 | 2494 ft | 187 kts | 349° |
| 2026-05-08 22:43 | -34.65777 | -58.24633 | 2492 ft | 171 kts | 324° |
| 2026-05-08 22:43 | -34.64898 | -58.25451 | 2328 ft | 152 kts | 301° |
| 2026-05-08 22:43 | -34.64317 | -58.26476 | 2176 ft | 146 kts | 296° |
| 2026-05-08 22:44 | -34.63752 | -58.27499 | 2013 ft | 146 kts | 297° |
| 2026-05-08 22:44 | -34.63186 | -58.28517 | 1837 ft | 145 kts | 297° |
| 2026-05-08 22:44 | -34.62622 | -58.29530 | 1746 ft | 145 kts | 297° |
| 2026-05-08 22:44 | -34.62059 | -58.30543 | 1697 ft | 144 kts | 297° |
| 2026-05-08 22:45 | -34.61495 | -58.31555 | 1700 ft | 145 kts | 297° |
| 2026-05-08 22:45 | -34.60932 | -58.32566 | 1672 ft | 145 kts | 297° |
| 2026-05-08 22:45 | -34.60378 | -58.33563 | 1460 ft | 140 kts | 297° |
| 2026-05-08 22:45 | -34.59849 | -58.34509 | 1263 ft | 133 kts | 298° |
| 2026-05-08 22:46 | -34.59334 | -58.35431 | 1072 ft | 131 kts | 298° |
| 2026-05-08 22:46 | -34.58824 | -58.36347 | 864 ft | 130 kts | 299° |
| 2026-05-08 22:46 | -34.58328 | -58.37251 | 694 ft | 130 kts | 299° |
| 2026-05-08 22:46 | -34.57821 | -58.38163 | 519 ft | 130 kts | 300° |
| 2026-05-08 22:47 | -34.57318 | -58.39077 | 359 ft | 131 kts | 300° |
| 2026-05-08 22:47 | -34.56806 | -58.40010 | 201 ft | 133 kts | 301° |
| 2026-05-08 22:47 | -34.56286 | -58.40930 | 41 ft | 126 kts | 301° |
| 2026-05-08 22:47 | -34.55858 | -58.41707 | 26 ft | 81 kts | 305° |
| 2026-05-08 22:48 | -34.55720 | -58.41911 | 25 ft | 11 kts | 350° |
| 2026-05-08 22:48 | -34.55673 | -58.41871 | 28 ft | 6 kts | 88° |
| 2026-05-08 22:48 | -34.55681 | -58.41854 | 28 ft | 0 kts | 124° |
| 2026-05-08 22:49 | -34.55687 | -58.41843 | 26 ft | 9 kts | 124° |
| 2026-05-08 22:50 | -34.55741 | -58.41743 | 28 ft | 14 kts | 117° |
| 2026-05-08 22:50 | -34.55780 | -58.41641 | 29 ft | 13 kts | 118° |
| 2026-05-08 22:50 | -34.55820 | -58.41550 | 29 ft | 11 kts | 117° |
| 2026-05-08 22:50 | -34.55854 | -58.41468 | 30 ft | 10 kts | 117° |
| 2026-05-08 22:51 | -34.55885 | -58.41394 | 28 ft | 9 kts | 117° |
| 2026-05-08 22:51 | -34.55905 | -58.41326 | 25 ft | 9 kts | 84° |
| 2026-05-08 22:51 | -34.55841 | -58.41291 | 27 ft | 8 kts | 341° |
| 2026-05-08 22:51 | -34.55809 | -58.41336 | 27 ft | 7 kts | 302° |
| 2026-05-08 22:52 | -34.55776 | -58.41340 | 27 ft | 5 kts | 35° |
| 2026-05-08 22:52 | -34.55760 | -58.41325 | 25 ft | 0 kts | 35° |